createdAt,value
2019-03-13T00:01:17.099Z,93.01
2019-03-13T00:03:45.809Z,93.02
2019-03-13T00:06:15.129Z,92.79
2019-03-13T00:08:44.246Z,92.83
2019-03-13T00:11:13.076Z,92.70
2019-03-13T00:13:41.958Z,92.86
2019-03-13T00:16:10.768Z,92.99
2019-03-13T00:18:39.486Z,92.77
2019-03-13T00:21:08.357Z,92.44
2019-03-13T00:23:37.079Z,92.61
2019-03-13T00:26:05.804Z,91.56
2019-03-13T00:28:34.950Z,91.05
2019-03-13T00:31:03.675Z,91.18
2019-03-13T00:33:32.397Z,91.26
2019-03-13T00:36:01.216Z,91.86
2019-03-13T00:38:29.922Z,92.20
2019-03-13T00:40:58.636Z,92.10
2019-03-13T00:43:27.419Z,91.91
2019-03-13T00:45:56.135Z,92.27
2019-03-13T00:48:24.855Z,93.01
2019-03-13T00:50:54.009Z,93.29
2019-03-13T00:53:22.735Z,94.31
2019-03-13T00:55:51.455Z,95.26
2019-03-13T00:58:20.331Z,95.87
2019-03-13T01:00:53.609Z,96.11
2019-03-13T01:03:30.157Z,96.50
2019-03-13T01:06:09.474Z,96.75
2019-03-13T01:08:38.436Z,97.70
2019-03-13T01:11:07.167Z,98.08
2019-03-13T01:13:35.881Z,98.14
2019-03-13T01:16:05.063Z,97.87
2019-03-13T01:18:33.783Z,98.11
2019-03-13T01:21:02.505Z,98.39
2019-03-13T01:23:31.627Z,98.35
2019-03-13T01:26:00.351Z,98.37
2019-03-13T01:28:29.072Z,99.24
2019-03-13T01:31:08.367Z,99.63
2019-03-13T01:33:37.097Z,99.98
2019-03-13T01:36:07.235Z,100.00
2019-03-13T01:38:36.165Z,99.63
2019-03-13T01:41:04.988Z,99.53
2019-03-13T01:43:33.716Z,99.27
2019-03-13T01:46:02.577Z,99.46
2019-03-13T01:48:31.289Z,99.70
2019-03-13T01:51:00.013Z,99.73
2019-03-13T01:53:28.781Z,100.00
2019-03-13T01:55:57.518Z,100.00
2019-03-13T01:58:26.256Z,100.00
2019-03-13T02:00:55.045Z,100.00
2019-03-13T02:03:23.770Z,100.00
2019-03-13T02:05:52.506Z,100.00
2019-03-13T02:08:21.390Z,100.00
2019-03-13T02:10:50.123Z,100.00
2019-03-13T02:13:18.853Z,100.00
2019-03-13T02:15:47.760Z,100.00
2019-03-13T02:18:16.449Z,100.00
2019-03-13T02:20:45.181Z,100.00
2019-03-13T02:23:13.997Z,100.00
2019-03-13T02:25:42.717Z,100.00
2019-03-13T02:28:11.446Z,100.00
2019-03-13T02:30:40.342Z,100.00
2019-03-13T02:33:09.067Z,100.00
2019-03-13T02:35:37.805Z,100.00
2019-03-13T02:38:06.572Z,100.00
2019-03-13T02:40:35.361Z,100.00
2019-03-13T02:43:04.180Z,100.00
2019-03-13T02:45:32.976Z,100.00
2019-03-13T02:48:01.704Z,100.00
2019-03-13T02:50:30.438Z,100.00
2019-03-13T02:52:59.319Z,100.00
2019-03-13T02:55:28.055Z,100.00
2019-03-13T02:57:56.771Z,100.00
2019-03-13T03:00:39.077Z,100.00
2019-03-13T03:03:27.350Z,100.00
2019-03-13T03:05:57.196Z,100.00
2019-03-13T03:08:25.949Z,100.00
2019-03-13T03:10:54.678Z,100.00
2019-03-13T03:13:23.770Z,100.00
2019-03-13T03:15:52.486Z,100.00
2019-03-13T03:18:21.209Z,100.00
2019-03-13T03:20:50.013Z,100.00
2019-03-13T03:23:18.734Z,100.00
2019-03-13T03:25:47.463Z,100.00
2019-03-13T03:28:16.213Z,100.00
2019-03-13T03:30:44.946Z,100.00
2019-03-13T03:33:13.667Z,100.00
2019-03-13T03:35:42.531Z,100.00
2019-03-13T03:38:11.255Z,100.00
2019-03-13T03:40:41.387Z,100.00
2019-03-13T03:43:10.565Z,100.00
2019-03-13T03:45:39.291Z,100.00
2019-03-13T03:48:08.007Z,100.00
2019-03-13T03:50:36.891Z,100.00
2019-03-13T03:53:05.621Z,100.00
2019-03-13T03:55:34.344Z,100.00
2019-03-13T03:58:04.426Z,100.00
2019-03-13T04:00:33.146Z,99.92
2019-03-13T04:03:01.860Z,97.84
2019-03-13T04:05:30.734Z,97.59
2019-03-13T04:07:59.462Z,97.97
2019-03-13T04:10:28.165Z,98.13
2019-03-13T04:12:56.938Z,98.29
2019-03-13T04:15:25.663Z,98.21
2019-03-13T04:17:54.388Z,98.12
2019-03-13T04:20:23.521Z,98.35
2019-03-13T04:22:52.250Z,98.30
2019-03-13T04:25:23.883Z,98.49
2019-03-13T04:27:52.762Z,98.49
2019-03-13T04:30:21.491Z,98.95
2019-03-13T04:32:50.219Z,99.23
2019-03-13T04:35:19.036Z,99.27
2019-03-13T04:37:47.739Z,99.67
2019-03-13T04:40:16.595Z,100.00
2019-03-13T04:42:45.455Z,100.00
2019-03-13T04:45:14.185Z,100.00
2019-03-13T04:47:42.851Z,99.51
2019-03-13T04:50:12.888Z,99.38
2019-03-13T04:52:41.590Z,99.38
2019-03-13T04:55:13.156Z,99.49
2019-03-13T04:57:41.995Z,99.37
2019-03-13T05:00:18.087Z,99.75
2019-03-13T05:02:47.202Z,99.96
2019-03-13T05:05:38.174Z,100.00
2019-03-13T05:08:06.914Z,100.00
2019-03-13T05:10:35.603Z,99.80
2019-03-13T05:13:04.310Z,99.50
2019-03-13T05:15:33.260Z,99.57
2019-03-13T05:18:01.942Z,99.61
2019-03-13T05:20:30.632Z,98.72
2019-03-13T05:22:59.707Z,98.41
2019-03-13T05:25:28.405Z,98.58
2019-03-13T05:27:57.089Z,98.91
2019-03-13T05:30:25.929Z,99.55
2019-03-13T05:32:54.603Z,99.78
2019-03-13T05:35:23.280Z,98.98
2019-03-13T05:37:52.028Z,97.95
2019-03-13T05:40:20.704Z,97.33
2019-03-13T05:42:49.384Z,97.15
2019-03-13T05:45:18.102Z,96.42
2019-03-13T05:47:46.782Z,96.21
2019-03-13T05:50:15.444Z,95.92
2019-03-13T05:52:44.160Z,94.34
2019-03-13T05:55:12.832Z,94.18
2019-03-13T05:57:41.507Z,93.76
2019-03-13T06:00:14.121Z,94.03
2019-03-13T06:02:42.797Z,93.85
2019-03-13T06:05:11.574Z,93.70
2019-03-13T06:07:40.311Z,94.30
2019-03-13T06:10:13.936Z,93.93
2019-03-13T06:12:42.610Z,93.76
2019-03-13T06:15:13.676Z,93.20
2019-03-13T06:17:42.357Z,93.37
2019-03-13T06:20:13.347Z,93.86
2019-03-13T06:22:42.169Z,93.40
2019-03-13T06:25:12.461Z,91.28
2019-03-13T06:27:41.132Z,90.69
2019-03-13T06:30:21.188Z,90.51
2019-03-13T06:32:49.863Z,88.64
2019-03-13T06:35:18.612Z,88.10
2019-03-13T06:37:47.721Z,87.31
2019-03-13T06:40:17.999Z,85.82
2019-03-13T06:42:46.780Z,86.78
2019-03-13T06:45:16.743Z,84.03
2019-03-13T06:47:45.531Z,83.08
2019-03-13T06:50:22.408Z,82.33
2019-03-13T06:52:51.075Z,82.78
2019-03-13T06:55:19.762Z,77.85
2019-03-13T06:57:48.618Z,77.47
2019-03-13T07:00:40.917Z,78.03
2019-03-13T07:03:23.727Z,78.84
2019-03-13T07:05:53.983Z,79.52
2019-03-13T07:08:30.200Z,79.46
2019-03-13T07:11:03.466Z,79.83
2019-03-13T07:13:39.635Z,79.56
2019-03-13T07:16:09.893Z,80.83
2019-03-13T07:18:49.109Z,80.00
2019-03-13T07:21:19.354Z,79.51
2019-03-13T07:23:52.593Z,79.86
2019-03-13T07:26:22.935Z,79.03
2019-03-13T07:28:53.185Z,79.25
2019-03-13T07:31:41.809Z,79.78
2019-03-13T07:34:28.275Z,79.26
2019-03-13T07:37:04.740Z,80.87
2019-03-13T07:39:47.041Z,79.73
2019-03-13T07:42:23.335Z,78.57
2019-03-13T07:44:59.378Z,78.42
2019-03-13T07:47:32.767Z,77.29
2019-03-13T07:50:03.006Z,77.75
2019-03-13T07:52:43.105Z,75.74
2019-03-13T07:55:13.347Z,75.10
2019-03-13T07:57:46.565Z,74.66
2019-03-13T08:00:16.890Z,72.65
2019-03-13T08:02:56.031Z,74.44
2019-03-13T08:05:42.418Z,72.00
2019-03-13T08:08:18.604Z,69.90
2019-03-13T08:11:07.665Z,71.97
2019-03-13T08:13:40.911Z,69.62
2019-03-13T08:16:29.487Z,67.60
2019-03-13T08:19:16.004Z,66.85
2019-03-13T08:21:49.166Z,67.72
2019-03-13T08:24:34.741Z,66.39
2019-03-13T08:27:05.097Z,62.50
2019-03-13T08:29:35.368Z,67.14
2019-03-13T08:32:08.362Z,63.10
2019-03-13T08:34:38.780Z,62.30
2019-03-13T08:37:17.920Z,61.26
2019-03-13T08:40:06.443Z,58.03
2019-03-13T08:42:36.815Z,56.95
2019-03-13T08:45:22.722Z,58.15
2019-03-13T08:48:04.879Z,55.00
2019-03-13T08:50:44.532Z,55.53
2019-03-13T08:53:14.828Z,53.92
2019-03-13T08:55:47.849Z,53.27
2019-03-13T08:58:18.208Z,52.89
2019-03-13T09:00:48.496Z,50.49
2019-03-13T09:03:36.844Z,50.12
2019-03-13T09:06:10.129Z,54.01
2019-03-13T09:08:56.988Z,49.83
2019-03-13T09:11:27.282Z,47.80
2019-03-13T09:14:01.496Z,50.31
2019-03-13T09:16:34.814Z,49.11
2019-03-13T09:19:08.089Z,48.97
2019-03-13T09:21:41.770Z,49.50
2019-03-13T09:24:14.782Z,50.85
2019-03-13T09:27:01.201Z,51.93
2019-03-13T09:29:31.671Z,54.34
2019-03-13T09:32:02.063Z,51.72
2019-03-13T09:34:41.288Z,51.98
2019-03-13T09:37:11.569Z,47.55
2019-03-13T09:39:53.885Z,48.55
2019-03-13T09:42:24.173Z,50.36
2019-03-13T09:45:06.458Z,49.80
2019-03-13T09:47:39.740Z,50.29
2019-03-13T09:50:12.749Z,50.75
2019-03-13T09:52:43.055Z,51.86
2019-03-13T09:55:22.713Z,52.87
2019-03-13T09:57:56.065Z,51.60
2019-03-13T10:00:26.354Z,49.61
2019-03-13T10:03:12.863Z,50.65
2019-03-13T10:05:58.413Z,50.32
2019-03-13T10:08:31.772Z,51.13
2019-03-13T10:11:02.060Z,51.13
2019-03-13T10:13:47.508Z,53.69
2019-03-13T10:16:17.799Z,51.01
2019-03-13T10:19:03.098Z,51.82
2019-03-13T10:21:49.959Z,52.92
2019-03-13T10:24:26.485Z,52.67
2019-03-13T10:26:56.776Z,50.96
2019-03-13T10:29:43.282Z,50.35
2019-03-13T10:32:13.675Z,53.38
2019-03-13T10:34:46.957Z,51.86
2019-03-13T10:37:17.306Z,52.64
2019-03-13T10:39:56.847Z,51.84
2019-03-13T10:42:30.286Z,50.04
2019-03-13T10:45:03.628Z,49.65
2019-03-13T10:47:33.919Z,49.76
2019-03-13T10:50:06.528Z,49.82
2019-03-13T10:52:53.025Z,51.69
2019-03-13T10:55:23.432Z,51.56
2019-03-13T10:58:09.933Z,51.75
2019-03-13T11:00:52.748Z,51.20
2019-03-13T11:03:32.089Z,50.85
2019-03-13T11:06:05.214Z,50.89
2019-03-13T11:08:44.678Z,46.87
2019-03-13T11:11:15.141Z,45.89
2019-03-13T11:13:45.428Z,46.30
2019-03-13T11:16:32.076Z,43.86
2019-03-13T11:19:02.367Z,45.67
2019-03-13T11:21:32.657Z,45.53
2019-03-13T11:24:09.474Z,46.30
2019-03-13T11:26:39.767Z,45.92
2019-03-13T11:29:10.057Z,46.94
2019-03-13T11:31:56.764Z,46.25
2019-03-13T11:34:33.368Z,46.79
2019-03-13T11:37:06.933Z,47.02
2019-03-13T11:39:43.188Z,46.52
2019-03-13T11:42:19.947Z,46.47
2019-03-13T11:44:52.996Z,46.94
2019-03-13T11:47:23.291Z,47.04
2019-03-13T11:50:09.032Z,46.57
2019-03-13T11:52:48.366Z,48.60
2019-03-13T11:55:18.886Z,49.09
2019-03-13T11:57:51.878Z,49.84
2019-03-13T12:00:34.254Z,50.07
2019-03-13T12:03:22.917Z,50.12
2019-03-13T12:05:56.035Z,49.61
2019-03-13T12:08:26.329Z,48.55
2019-03-13T12:11:09.182Z,48.41
2019-03-13T12:13:51.751Z,48.29
2019-03-13T12:16:31.220Z,48.96
2019-03-13T12:19:01.513Z,49.52
2019-03-13T12:21:48.323Z,49.84
2019-03-13T12:24:18.619Z,50.30
2019-03-13T12:27:07.459Z,50.58
2019-03-13T12:29:37.747Z,50.38
2019-03-13T12:32:10.739Z,49.84
2019-03-13T12:34:41.093Z,52.87
2019-03-13T12:37:28.040Z,49.94
2019-03-13T12:40:01.497Z,52.30
2019-03-13T12:42:47.062Z,49.51
2019-03-13T12:45:18.120Z,49.33
2019-03-13T12:48:16.120Z,51.17
2019-03-13T12:50:38.815Z,47.93
2019-03-13T12:53:18.149Z,46.53
2019-03-13T12:55:51.670Z,47.18
2019-03-13T12:58:31.010Z,44.21
2019-03-13T13:01:07.192Z,45.51
2019-03-13T13:03:37.514Z,42.97
2019-03-13T13:06:14.166Z,44.23
2019-03-13T13:08:50.605Z,44.10
2019-03-13T13:11:23.894Z,44.77
2019-03-13T13:14:00.096Z,46.54
2019-03-13T13:16:30.825Z,46.62
2019-03-13T13:18:59.539Z,46.29
2019-03-13T13:21:28.260Z,46.63
2019-03-13T13:23:57.345Z,47.13
2019-03-13T13:26:26.067Z,47.75
2019-03-13T13:28:54.793Z,46.72
2019-03-13T13:31:23.549Z,47.39
2019-03-13T13:33:52.352Z,46.78
2019-03-13T13:36:21.083Z,47.75
2019-03-13T13:38:50.281Z,46.83
2019-03-13T13:41:18.999Z,46.68
2019-03-13T13:43:47.726Z,46.41
2019-03-13T13:46:27.187Z,47.07
2019-03-13T13:48:55.918Z,47.53
2019-03-13T13:51:24.651Z,49.73
2019-03-13T13:53:55.705Z,49.66
2019-03-13T13:56:23.988Z,48.41
2019-03-13T13:58:52.714Z,47.28
2019-03-13T14:01:22.985Z,46.94
2019-03-13T14:03:51.714Z,48.67
2019-03-13T14:06:20.446Z,48.59
2019-03-13T14:08:49.211Z,51.31
2019-03-13T14:11:17.920Z,53.15
2019-03-13T14:13:46.641Z,53.71
2019-03-13T14:16:15.430Z,52.43
2019-03-13T14:18:44.140Z,51.66
2019-03-13T14:21:12.864Z,52.54
2019-03-13T14:23:41.999Z,53.54
2019-03-13T14:26:10.718Z,54.14
2019-03-13T14:28:39.484Z,54.29
2019-03-13T14:31:08.651Z,54.50
2019-03-13T14:33:37.369Z,54.02
2019-03-13T14:36:06.094Z,54.78
2019-03-13T14:38:34.894Z,53.71
2019-03-13T14:41:03.594Z,52.99
2019-03-13T14:43:32.317Z,52.29
2019-03-13T14:46:01.180Z,52.13
2019-03-13T14:48:31.369Z,52.72
2019-03-13T14:51:00.093Z,52.37
2019-03-13T14:53:28.964Z,53.59
2019-03-13T14:55:57.695Z,53.49
2019-03-13T14:58:26.489Z,53.79
2019-03-13T15:00:55.261Z,54.67
2019-03-13T15:03:23.998Z,54.51
2019-03-13T15:05:52.719Z,53.61
2019-03-13T15:08:21.578Z,53.96
2019-03-13T15:10:50.300Z,55.15
2019-03-13T15:13:19.093Z,54.05
2019-03-13T15:15:47.946Z,53.15
2019-03-13T15:18:16.663Z,53.58
2019-03-13T15:20:45.395Z,54.35
2019-03-13T15:23:14.550Z,54.30
2019-03-13T15:25:43.287Z,52.36
2019-03-13T15:28:12.007Z,53.78
2019-03-13T15:30:41.235Z,54.86
2019-03-13T15:33:09.955Z,55.99
2019-03-13T15:35:38.669Z,55.28
2019-03-13T15:38:07.462Z,55.36
2019-03-13T15:40:36.176Z,55.12
2019-03-13T15:43:04.902Z,54.63
2019-03-13T15:45:37.129Z,54.45
2019-03-13T15:48:05.843Z,54.69
2019-03-13T15:50:34.567Z,54.09
2019-03-13T15:53:03.511Z,55.23
2019-03-13T15:55:32.231Z,55.27
2019-03-13T15:58:00.953Z,55.85
2019-03-13T16:00:31.148Z,56.71
2019-03-13T16:02:59.870Z,57.42
2019-03-13T16:05:28.647Z,57.98
2019-03-13T16:07:57.761Z,58.08
2019-03-13T16:10:26.482Z,56.96
2019-03-13T16:12:56.774Z,55.71
2019-03-13T16:15:31.549Z,56.52
2019-03-13T16:18:00.361Z,57.33
2019-03-13T16:20:29.080Z,57.21
2019-03-13T16:22:59.428Z,57.84
2019-03-13T16:25:28.151Z,58.56
2019-03-13T16:27:56.858Z,58.41
2019-03-13T16:30:28.419Z,58.76
2019-03-13T16:32:57.138Z,59.15
2019-03-13T16:35:26.635Z,59.11
2019-03-13T16:37:55.664Z,58.34
2019-03-13T16:40:24.384Z,58.61
2019-03-13T16:42:53.120Z,58.55
2019-03-13T16:45:22.870Z,58.56
2019-03-13T16:47:51.582Z,60.18
2019-03-13T16:50:22.538Z,60.41
2019-03-13T16:52:51.603Z,60.31
2019-03-13T16:55:21.130Z,62.08
2019-03-13T16:57:49.959Z,61.82
2019-03-13T17:00:20.955Z,61.89
2019-03-13T17:02:50.715Z,62.53
2019-03-13T17:05:19.534Z,62.62
2019-03-13T17:07:50.042Z,62.73
2019-03-13T17:10:21.465Z,62.54
2019-03-13T17:12:50.287Z,62.21
2019-03-13T17:15:23.224Z,61.50
2019-03-13T17:17:52.445Z,61.58
2019-03-13T17:20:29.418Z,61.09
2019-03-13T17:22:58.444Z,61.64
2019-03-13T17:25:27.178Z,61.84
2019-03-13T17:27:56.370Z,62.34
2019-03-13T17:30:29.947Z,62.36
2019-03-13T17:32:59.174Z,62.83
2019-03-13T17:35:28.003Z,63.58
2019-03-13T17:37:56.823Z,63.99
2019-03-13T17:40:27.696Z,62.92
2019-03-13T17:42:56.529Z,62.59
2019-03-13T17:45:25.656Z,62.71
2019-03-13T17:47:54.772Z,61.61
2019-03-13T17:50:26.717Z,62.17
2019-03-13T17:52:55.479Z,61.89
2019-03-13T17:55:25.137Z,61.54
2019-03-13T17:57:54.102Z,61.22
2019-03-13T18:00:32.431Z,61.10
2019-03-13T18:03:01.632Z,61.18
2019-03-13T18:05:30.354Z,61.51
2019-03-13T18:07:59.076Z,61.08
2019-03-13T18:10:27.871Z,61.24
2019-03-13T18:12:56.588Z,61.40
2019-03-13T18:15:25.299Z,60.74
2019-03-13T18:17:54.070Z,61.24
2019-03-13T18:20:24.567Z,62.65
2019-03-13T18:22:53.274Z,62.74
2019-03-13T18:25:22.149Z,63.21
2019-03-13T18:27:51.023Z,62.69
2019-03-13T18:30:34.567Z,62.69
2019-03-13T18:33:03.380Z,63.06
2019-03-13T18:35:32.204Z,62.65
2019-03-13T18:38:00.973Z,62.61
2019-03-13T18:40:29.699Z,64.25
2019-03-13T18:42:58.527Z,65.94
2019-03-13T18:45:32.213Z,67.13
2019-03-13T18:48:00.985Z,68.00
2019-03-13T18:50:30.276Z,68.99
2019-03-13T18:52:59.054Z,67.88
2019-03-13T18:55:35.941Z,67.61
2019-03-13T18:58:05.009Z,67.29
2019-03-13T19:00:37.930Z,67.26
2019-03-13T19:03:08.619Z,67.44
2019-03-13T19:05:38.560Z,67.81
2019-03-13T19:08:07.777Z,67.65
2019-03-13T19:10:36.499Z,65.65
2019-03-13T19:13:06.119Z,64.54
2019-03-13T19:15:34.892Z,64.52
2019-03-13T19:18:03.629Z,64.51
2019-03-13T19:20:33.175Z,65.17
2019-03-13T19:23:01.884Z,65.01
2019-03-13T19:25:30.610Z,66.34
2019-03-13T19:27:59.565Z,66.27
2019-03-13T19:30:37.733Z,66.78
2019-03-13T19:33:07.823Z,66.13
2019-03-13T19:35:36.529Z,66.65
2019-03-13T19:38:10.898Z,65.72
2019-03-13T19:40:39.981Z,65.38
2019-03-13T19:43:08.767Z,64.63
2019-03-13T19:45:47.668Z,65.14
2019-03-13T19:48:16.380Z,65.44
2019-03-13T19:50:45.109Z,65.37
2019-03-13T19:53:14.058Z,66.02
2019-03-13T19:55:42.775Z,65.63
2019-03-13T19:58:14.005Z,66.30
2019-03-13T20:00:42.039Z,66.19
2019-03-13T20:03:13.100Z,66.58
2019-03-13T20:05:45.729Z,66.40
2019-03-13T20:08:13.888Z,66.36
2019-03-13T20:10:45.836Z,66.13
2019-03-13T20:13:14.561Z,65.71
2019-03-13T20:15:43.777Z,65.80
2019-03-13T20:18:12.498Z,65.62
2019-03-13T20:20:41.219Z,66.01
2019-03-13T20:23:12.440Z,65.80
2019-03-13T20:25:41.233Z,66.89
2019-03-13T20:28:10.046Z,66.53
2019-03-13T20:30:39.139Z,66.62
2019-03-13T20:33:07.859Z,67.14
2019-03-13T20:35:37.296Z,67.29
2019-03-13T20:38:06.273Z,68.06
2019-03-13T20:40:34.991Z,68.50
2019-03-13T20:43:03.717Z,68.56
2019-03-13T20:45:32.915Z,69.54
2019-03-13T20:48:01.603Z,70.02
2019-03-13T20:50:37.393Z,70.21
2019-03-13T20:53:00.821Z,70.42
2019-03-13T20:55:29.554Z,69.80
2019-03-13T20:57:58.267Z,69.11
2019-03-13T21:00:28.137Z,68.97
2019-03-13T21:02:57.567Z,68.73
2019-03-13T21:05:26.889Z,68.69
2019-03-13T21:07:55.864Z,69.37
2019-03-13T21:10:24.975Z,69.04
2019-03-13T21:12:53.700Z,68.78
2019-03-13T21:15:26.531Z,68.99
2019-03-13T21:17:55.436Z,69.89
2019-03-13T21:20:24.310Z,70.58
2019-03-13T21:22:53.426Z,70.60
2019-03-13T21:25:24.289Z,69.89
2019-03-13T21:27:53.011Z,70.25
2019-03-13T21:30:26.281Z,70.62
2019-03-13T21:32:55.299Z,70.71
2019-03-13T21:35:24.422Z,71.63
2019-03-13T21:37:53.789Z,72.18
2019-03-13T21:40:24.112Z,72.68
2019-03-13T21:42:54.776Z,72.47
2019-03-13T21:45:23.597Z,72.09
2019-03-13T21:47:52.339Z,71.81
2019-03-13T21:50:21.252Z,72.03
2019-03-13T21:52:50.126Z,71.83
2019-03-13T21:55:19.641Z,71.45
2019-03-13T21:57:51.771Z,71.55
2019-03-13T22:00:24.204Z,72.17
2019-03-13T22:02:53.029Z,72.27
2019-03-13T22:05:26.334Z,72.18
2019-03-13T22:07:53.356Z,72.31
2019-03-13T22:10:22.175Z,72.30
2019-03-13T22:12:51.390Z,72.19
2019-03-13T22:15:21.658Z,72.87
2019-03-13T22:17:50.395Z,73.13
2019-03-13T22:20:19.670Z,73.51
2019-03-13T22:22:48.536Z,73.54
2019-03-13T22:25:20.618Z,74.74
2019-03-13T22:27:49.555Z,74.66
2019-03-13T22:30:23.039Z,74.93
2019-03-13T22:32:52.245Z,74.40
2019-03-13T22:35:20.952Z,75.07
2019-03-13T22:37:50.297Z,74.94
2019-03-13T22:40:19.318Z,75.32
2019-03-13T22:42:48.044Z,75.22
2019-03-13T22:45:18.450Z,75.45
2019-03-13T22:47:48.487Z,75.51
2019-03-13T22:50:21.724Z,75.55
2019-03-13T22:52:50.823Z,76.01
2019-03-13T22:55:19.640Z,77.16
2019-03-13T22:57:48.459Z,77.10
2019-03-13T23:00:47.276Z,77.15
2019-03-13T23:03:17.001Z,77.73
2019-03-13T23:05:45.827Z,77.62
2019-03-13T23:08:14.608Z,77.93
2019-03-13T23:10:43.540Z,78.54
2019-03-13T23:13:12.271Z,79.24
2019-03-13T23:15:41.069Z,79.29
2019-03-13T23:18:09.806Z,79.98
2019-03-13T23:20:38.517Z,80.39
2019-03-13T23:23:07.423Z,80.06
2019-03-13T23:25:36.148Z,80.25
2019-03-13T23:28:05.079Z,81.50
2019-03-13T23:30:34.287Z,81.78
2019-03-13T23:33:03.016Z,82.32
2019-03-13T23:35:31.736Z,82.69
2019-03-13T23:38:00.879Z,83.21
2019-03-13T23:40:29.600Z,83.62
2019-03-13T23:42:58.311Z,84.24
2019-03-13T23:45:27.202Z,84.11
2019-03-13T23:47:55.925Z,84.28
2019-03-13T23:50:24.649Z,84.06
2019-03-13T23:52:53.523Z,84.30
2019-03-13T23:55:22.247Z,84.97
2019-03-13T23:57:50.970Z,84.60
